sensor_id;sensor_type;location;lat;lon;timestamp;P1;durP1;ratioP1;P2;durP2;ratioP2
37065;SDS011;22981;43.080;25.550;2023-10-13T07:25:28;15.35;;;8.65;;
37065;SDS011;22981;43.080;25.550;2023-10-13T07:27:59;9.28;;;7.70;;
37065;SDS011;22981;43.080;25.550;2023-10-13T07:30:29;11.28;;;7.78;;
37065;SDS011;22981;43.080;25.550;2023-10-13T07:32:57;8.75;;;6.72;;
37065;SDS011;22981;43.080;25.550;2023-10-13T07:35:25;7.67;;;6.70;;
37065;SDS011;22981;43.080;25.550;2023-10-13T07:37:54;12.05;;;6.03;;
37065;SDS011;22981;43.080;25.550;2023-10-13T07:40:23;7.05;;;6.03;;
37065;SDS011;22981;43.080;25.550;2023-10-13T07:42:53;8.60;;;5.85;;
37065;SDS011;22981;43.080;25.550;2023-10-13T07:45:29;9.68;;;5.70;;
37065;SDS011;22981;43.080;25.550;2023-10-13T07:48:03;6.83;;;4.78;;
37065;SDS011;22981;43.080;25.550;2023-10-13T07:50:34;7.22;;;4.85;;
37065;SDS011;22981;43.080;25.550;2023-10-13T07:53:01;7.33;;;4.60;;
37065;SDS011;22981;43.080;25.550;2023-10-13T07:55:33;5.55;;;4.37;;
37065;SDS011;22981;43.080;25.550;2023-10-13T07:58:03;9.33;;;3.70;;
37065;SDS011;22981;43.080;25.550;2023-10-13T08:00:32;8.38;;;4.58;;
37065;SDS011;22981;43.080;25.550;2023-10-13T08:03:13;8.65;;;4.10;;
37065;SDS011;22981;43.080;25.550;2023-10-13T08:05:42;7.17;;;4.35;;
37065;SDS011;22981;43.080;25.550;2023-10-13T08:08:29;8.63;;;4.30;;
37065;SDS011;22981;43.080;25.550;2023-10-13T08:11:09;8.13;;;3.37;;
37065;SDS011;22981;43.080;25.550;2023-10-13T08:13:51;9.18;;;3.30;;
37065;SDS011;22981;43.080;25.550;2023-10-13T08:16:22;6.75;;;3.40;;
37065;SDS011;22981;43.080;25.550;2023-10-13T08:18:51;8.93;;;3.60;;
37065;SDS011;22981;43.080;25.550;2023-10-13T08:21:19;12.93;;;3.45;;
37065;SDS011;22981;43.080;25.550;2023-10-13T08:26:16;5.35;;;3.20;;
37065;SDS011;22981;43.080;25.550;2023-10-13T08:29:05;8.53;;;3.62;;
37065;SDS011;22981;43.080;25.550;2023-10-13T08:31:52;7.75;;;2.90;;
37065;SDS011;22981;43.080;25.550;2023-10-13T08:34:31;8.05;;;3.33;;
37065;SDS011;22981;43.080;25.550;2023-10-13T08:37:11;7.92;;;3.30;;
37065;SDS011;22981;43.080;25.550;2023-10-13T08:39:51;8.48;;;3.52;;
37065;SDS011;22981;43.080;25.550;2023-10-13T08:42:31;4.30;;;3.20;;
37065;SDS011;22981;43.080;25.550;2023-10-13T08:45:07;5.67;;;3.17;;
37065;SDS011;22981;43.080;25.550;2023-10-13T08:47:50;8.13;;;2.95;;
37065;SDS011;22981;43.080;25.550;2023-10-13T08:50:41;7.65;;;2.70;;
37065;SDS011;22981;43.080;25.550;2023-10-13T08:53:22;4.17;;;3.15;;
37065;SDS011;22981;43.080;25.550;2023-10-13T08:56:02;4.30;;;2.75;;
37065;SDS011;22981;43.080;25.550;2023-10-13T08:58:41;6.92;;;3.42;;
37065;SDS011;22981;43.080;25.550;2023-10-13T09:01:22;7.03;;;3.25;;
37065;SDS011;22981;43.080;25.550;2023-10-13T09:04:05;6.10;;;2.47;;
37065;SDS011;22981;43.080;25.550;2023-10-13T09:06:59;6.50;;;3.70;;
37065;SDS011;22981;43.080;25.550;2023-10-13T09:09:46;5.30;;;2.80;;
37065;SDS011;22981;43.080;25.550;2023-10-13T09:12:32;4.67;;;3.25;;
37065;SDS011;22981;43.080;25.550;2023-10-13T09:15:02;6.97;;;3.02;;
37065;SDS011;22981;43.080;25.550;2023-10-13T09:17:40;6.37;;;2.75;;
37065;SDS011;22981;43.080;25.550;2023-10-13T09:20:29;7.12;;;2.72;;
37065;SDS011;22981;43.080;25.550;2023-10-13T09:23:14;7.97;;;3.20;;
37065;SDS011;22981;43.080;25.550;2023-10-13T09:25:48;9.83;;;3.45;;
37065;SDS011;22981;43.080;25.550;2023-10-13T09:28:35;5.83;;;2.85;;
37065;SDS011;22981;43.080;25.550;2023-10-13T09:31:03;6.37;;;2.90;;
37065;SDS011;22981;43.080;25.550;2023-10-13T09:33:32;9.95;;;3.10;;
37065;SDS011;22981;43.080;25.550;2023-10-13T09:36:05;12.37;;;3.07;;
37065;SDS011;22981;43.080;25.550;2023-10-13T09:38:53;10.25;;;2.83;;
37065;SDS011;22981;43.080;25.550;2023-10-13T09:41:39;6.03;;;2.98;;
37065;SDS011;22981;43.080;25.550;2023-10-13T09:44:07;5.80;;;3.00;;
37065;SDS011;22981;43.080;25.550;2023-10-13T09:46:37;6.40;;;3.10;;
37065;SDS011;22981;43.080;25.550;2023-10-13T09:49:07;9.45;;;4.62;;
37065;SDS011;22981;43.080;25.550;2023-10-13T09:51:37;7.77;;;3.53;;
37065;SDS011;22981;43.080;25.550;2023-10-13T09:54:10;6.50;;;3.20;;
37065;SDS011;22981;43.080;25.550;2023-10-13T09:56:40;3.65;;;2.70;;
37065;SDS011;22981;43.080;25.550;2023-10-13T09:59:26;5.65;;;3.80;;
37065;SDS011;22981;43.080;25.550;2023-10-13T10:01:51;6.92;;;3.47;;
37065;SDS011;22981;43.080;25.550;2023-10-13T10:04:25;7.03;;;3.20;;
37065;SDS011;22981;43.080;25.550;2023-10-13T10:06:55;7.60;;;3.52;;
37065;SDS011;22981;43.080;25.550;2023-10-13T10:09:29;6.45;;;3.08;;
37065;SDS011;22981;43.080;25.550;2023-10-13T10:12:09;4.35;;;2.75;;
37065;SDS011;22981;43.080;25.550;2023-10-13T10:17:46;5.85;;;3.40;;
37065;SDS011;22981;43.080;25.550;2023-10-13T10:20:15;11.63;;;5.05;;
37065;SDS011;22981;43.080;25.550;2023-10-13T10:22:57;6.95;;;3.00;;
37065;SDS011;22981;43.080;25.550;2023-10-13T10:25:28;4.70;;;2.83;;
37065;SDS011;22981;43.080;25.550;2023-10-13T10:27:59;7.20;;;3.08;;
37065;SDS011;22981;43.080;25.550;2023-10-13T10:30:31;9.30;;;2.92;;
37065;SDS011;22981;43.080;25.550;2023-10-13T10:33:00;5.40;;;2.92;;
37065;SDS011;22981;43.080;25.550;2023-10-13T10:35:47;7.15;;;3.20;;
37065;SDS011;22981;43.080;25.550;2023-10-13T10:38:17;13.93;;;2.83;;
37065;SDS011;22981;43.080;25.550;2023-10-13T10:43:29;4.50;;;2.75;;
37065;SDS011;22981;43.080;25.550;2023-10-13T10:46:09;5.60;;;2.80;;
37065;SDS011;22981;43.080;25.550;2023-10-13T10:48:38;11.33;;;2.67;;
37065;SDS011;22981;43.080;25.550;2023-10-13T10:51:12;4.72;;;2.92;;
37065;SDS011;22981;43.080;25.550;2023-10-13T10:53:53;7.03;;;2.80;;
37065;SDS011;22981;43.080;25.550;2023-10-13T10:56:27;4.33;;;3.40;;
37065;SDS011;22981;43.080;25.550;2023-10-13T10:58:58;9.30;;;3.37;;
37065;SDS011;22981;43.080;25.550;2023-10-13T11:01:27;7.83;;;2.98;;
37065;SDS011;22981;43.080;25.550;2023-10-13T11:03:58;5.75;;;2.60;;
37065;SDS011;22981;43.080;25.550;2023-10-13T11:06:37;4.58;;;2.50;;
37065;SDS011;22981;43.080;25.550;2023-10-13T11:09:10;6.22;;;3.10;;
37065;SDS011;22981;43.080;25.550;2023-10-13T11:11:46;4.80;;;2.95;;
37065;SDS011;22981;43.080;25.550;2023-10-13T11:14:25;6.35;;;2.87;;
37065;SDS011;22981;43.080;25.550;2023-10-13T11:16:54;5.37;;;2.58;;
37065;SDS011;22981;43.080;25.550;2023-10-13T11:19:34;4.92;;;2.70;;
37065;SDS011;22981;43.080;25.550;2023-10-13T11:22:12;5.58;;;2.67;;
37065;SDS011;22981;43.080;25.550;2023-10-13T11:24:57;6.00;;;2.60;;
37065;SDS011;22981;43.080;25.550;2023-10-13T11:27:31;5.42;;;2.92;;
37065;SDS011;22981;43.080;25.550;2023-10-13T11:30:16;6.78;;;2.70;;
37065;SDS011;22981;43.080;25.550;2023-10-13T11:33:04;9.73;;;3.00;;
37065;SDS011;22981;43.080;25.550;2023-10-13T11:35:37;7.50;;;3.08;;
37065;SDS011;22981;43.080;25.550;2023-10-13T11:38:16;7.28;;;3.20;;
37065;SDS011;22981;43.080;25.550;2023-10-13T11:40:45;5.30;;;2.95;;
37065;SDS011;22981;43.080;25.550;2023-10-13T11:43:27;6.25;;;2.75;;
37065;SDS011;22981;43.080;25.550;2023-10-13T11:45:56;5.97;;;2.67;;
37065;SDS011;22981;43.080;25.550;2023-10-13T11:48:38;6.28;;;2.62;;
37065;SDS011;22981;43.080;25.550;2023-10-13T11:51:11;4.33;;;2.60;;
37065;SDS011;22981;43.080;25.550;2023-10-13T11:53:56;5.05;;;2.30;;
37065;SDS011;22981;43.080;25.550;2023-10-13T11:56:24;4.60;;;2.60;;
37065;SDS011;22981;43.080;25.550;2023-10-13T11:58:51;7.67;;;2.77;;
37065;SDS011;22981;43.080;25.550;2023-10-13T12:01:19;8.00;;;2.72;;
37065;SDS011;22981;43.080;25.550;2023-10-13T12:03:48;9.55;;;3.40;;
37065;SDS011;22981;43.080;25.550;2023-10-13T12:06:35;5.37;;;2.75;;
37065;SDS011;22981;43.080;25.550;2023-10-13T12:09:05;7.67;;;2.47;;
37065;SDS011;22981;43.080;25.550;2023-10-13T12:11:38;4.95;;;2.95;;
37065;SDS011;22981;43.080;25.550;2023-10-13T12:14:08;8.70;;;3.05;;
37065;SDS011;22981;43.080;25.550;2023-10-13T12:16:49;4.33;;;2.90;;
37065;SDS011;22981;43.080;25.550;2023-10-13T12:19:17;6.75;;;2.52;;
37065;SDS011;22981;43.080;25.550;2023-10-13T12:21:53;7.45;;;3.02;;
37065;SDS011;22981;43.080;25.550;2023-10-13T12:24:27;13.03;;;2.80;;
37065;SDS011;22981;43.080;25.550;2023-10-13T12:27:03;7.42;;;2.70;;
37065;SDS011;22981;43.080;25.550;2023-10-13T12:29:34;6.65;;;2.80;;
37065;SDS011;22981;43.080;25.550;2023-10-13T12:32:02;6.30;;;2.90;;
37065;SDS011;22981;43.080;25.550;2023-10-13T12:34:37;7.87;;;3.00;;
37065;SDS011;22981;43.080;25.550;2023-10-13T12:37:30;7.70;;;3.20;;
37065;SDS011;22981;43.080;25.550;2023-10-13T12:40:06;7.92;;;2.70;;
37065;SDS011;22981;43.080;25.550;2023-10-13T12:42:53;4.67;;;3.15;;
37065;SDS011;22981;43.080;25.550;2023-10-13T12:45:39;6.62;;;2.77;;
37065;SDS011;22981;43.080;25.550;2023-10-13T12:48:26;8.73;;;3.00;;
37065;SDS011;22981;43.080;25.550;2023-10-13T12:51:12;5.42;;;2.87;;
37065;SDS011;22981;43.080;25.550;2023-10-13T12:53:51;10.75;;;3.08;;
37065;SDS011;22981;43.080;25.550;2023-10-13T12:56:16;6.03;;;2.70;;
37065;SDS011;22981;43.080;25.550;2023-10-13T12:58:46;6.85;;;3.05;;
37065;SDS011;22981;43.080;25.550;2023-10-13T13:01:20;5.97;;;2.90;;
37065;SDS011;22981;43.080;25.550;2023-10-13T13:03:50;6.42;;;2.80;;
37065;SDS011;22981;43.080;25.550;2023-10-13T13:06:22;5.85;;;2.67;;
37065;SDS011;22981;43.080;25.550;2023-10-13T13:08:54;13.45;;;3.12;;
37065;SDS011;22981;43.080;25.550;2023-10-13T13:11:25;7.30;;;2.90;;
37065;SDS011;22981;43.080;25.550;2023-10-13T13:13:56;6.58;;;2.67;;
37065;SDS011;22981;43.080;25.550;2023-10-13T13:16:24;9.30;;;2.58;;
37065;SDS011;22981;43.080;25.550;2023-10-13T13:18:53;5.60;;;2.72;;
37065;SDS011;22981;43.080;25.550;2023-10-13T13:21:20;7.10;;;3.10;;
37065;SDS011;22981;43.080;25.550;2023-10-13T13:23:52;26.62;;;13.93;;
37065;SDS011;22981;43.080;25.550;2023-10-13T13:26:24;4.25;;;2.92;;
37065;SDS011;22981;43.080;25.550;2023-10-13T13:28:51;10.05;;;3.15;;
37065;SDS011;22981;43.080;25.550;2023-10-13T13:31:22;8.68;;;2.98;;
37065;SDS011;22981;43.080;25.550;2023-10-13T13:33:51;10.70;;;3.22;;
37065;SDS011;22981;43.080;25.550;2023-10-13T13:36:19;8.73;;;3.20;;
37065;SDS011;22981;43.080;25.550;2023-10-13T13:38:48;12.05;;;5.05;;
37065;SDS011;22981;43.080;25.550;2023-10-13T13:41:17;13.90;;;5.97;;
37065;SDS011;22981;43.080;25.550;2023-10-13T13:43:49;26.70;;;11.78;;
37065;SDS011;22981;43.080;25.550;2023-10-13T13:46:25;7.80;;;3.75;;
37065;SDS011;22981;43.080;25.550;2023-10-13T13:48:55;14.65;;;3.10;;
37065;SDS011;22981;43.080;25.550;2023-10-13T13:51:26;7.08;;;2.65;;
37065;SDS011;22981;43.080;25.550;2023-10-13T13:53:56;5.30;;;2.90;;
37065;SDS011;22981;43.080;25.550;2023-10-13T13:56:24;10.63;;;3.35;;
37065;SDS011;22981;43.080;25.550;2023-10-13T13:58:54;5.67;;;2.67;;
37065;SDS011;22981;43.080;25.550;2023-10-13T14:01:21;9.43;;;3.25;;
37065;SDS011;22981;43.080;25.550;2023-10-13T14:03:51;7.40;;;3.00;;
37065;SDS011;22981;43.080;25.550;2023-10-13T14:06:21;39.48;;;4.55;;
37065;SDS011;22981;43.080;25.550;2023-10-13T14:08:51;14.45;;;3.12;;
37065;SDS011;22981;43.080;25.550;2023-10-13T14:11:23;7.97;;;3.20;;
37065;SDS011;22981;43.080;25.550;2023-10-13T14:14:09;8.20;;;3.35;;
37065;SDS011;22981;43.080;25.550;2023-10-13T14:16:43;9.83;;;3.30;;
37065;SDS011;22981;43.080;25.550;2023-10-13T14:19:11;8.08;;;3.00;;
37065;SDS011;22981;43.080;25.550;2023-10-13T14:21:38;5.37;;;2.90;;
37065;SDS011;22981;43.080;25.550;2023-10-13T14:24:08;8.58;;;3.50;;
37065;SDS011;22981;43.080;25.550;2023-10-13T14:26:43;7.72;;;2.85;;
37065;SDS011;22981;43.080;25.550;2023-10-13T14:29:11;9.38;;;3.27;;
37065;SDS011;22981;43.080;25.550;2023-10-13T14:31:39;6.78;;;2.70;;
37065;SDS011;22981;43.080;25.550;2023-10-13T14:34:07;6.05;;;2.67;;
37065;SDS011;22981;43.080;25.550;2023-10-13T14:36:36;11.28;;;2.95;;
37065;SDS011;22981;43.080;25.550;2023-10-13T14:39:07;4.67;;;2.75;;
37065;SDS011;22981;43.080;25.550;2023-10-13T14:41:37;9.60;;;3.05;;
37065;SDS011;22981;43.080;25.550;2023-10-13T14:44:05;8.75;;;2.83;;
37065;SDS011;22981;43.080;25.550;2023-10-13T14:46:33;6.90;;;2.55;;
37065;SDS011;22981;43.080;25.550;2023-10-13T14:49:02;8.75;;;2.80;;
37065;SDS011;22981;43.080;25.550;2023-10-13T14:51:30;5.83;;;2.98;;
37065;SDS011;22981;43.080;25.550;2023-10-13T14:53:58;9.35;;;3.25;;
37065;SDS011;22981;43.080;25.550;2023-10-13T14:56:26;7.35;;;2.65;;
37065;SDS011;22981;43.080;25.550;2023-10-13T14:58:54;7.05;;;3.10;;
37065;SDS011;22981;43.080;25.550;2023-10-13T15:01:22;4.85;;;2.80;;
37065;SDS011;22981;43.080;25.550;2023-10-13T15:03:52;6.53;;;3.30;;
37065;SDS011;22981;43.080;25.550;2023-10-13T15:06:24;8.20;;;2.85;;
37065;SDS011;22981;43.080;25.550;2023-10-13T15:08:57;6.97;;;3.20;;
37065;SDS011;22981;43.080;25.550;2023-10-13T15:11:26;9.70;;;3.40;;
37065;SDS011;22981;43.080;25.550;2023-10-13T15:13:56;9.78;;;3.30;;
37065;SDS011;22981;43.080;25.550;2023-10-13T15:16:24;19.35;;;3.22;;
37065;SDS011;22981;43.080;25.550;2023-10-13T15:18:55;12.30;;;3.75;;
37065;SDS011;22981;43.080;25.550;2023-10-13T15:21:27;14.03;;;3.35;;
37065;SDS011;22981;43.080;25.550;2023-10-13T15:24:06;5.10;;;2.52;;
37065;SDS011;22981;43.080;25.550;2023-10-13T15:26:32;9.10;;;3.22;;
37065;SDS011;22981;43.080;25.550;2023-10-13T15:29:02;9.53;;;2.80;;
37065;SDS011;22981;43.080;25.550;2023-10-13T15:31:31;7.22;;;3.40;;
37065;SDS011;22981;43.080;25.550;2023-10-13T15:34:01;13.58;;;3.27;;
37065;SDS011;22981;43.080;25.550;2023-10-13T15:36:35;7.40;;;3.87;;
37065;SDS011;22981;43.080;25.550;2023-10-13T15:39:04;16.27;;;5.10;;
37065;SDS011;22981;43.080;25.550;2023-10-13T15:41:33;12.50;;;3.75;;
37065;SDS011;22981;43.080;25.550;2023-10-13T15:44:02;12.47;;;4.40;;
37065;SDS011;22981;43.080;25.550;2023-10-13T15:46:32;9.85;;;3.52;;
37065;SDS011;22981;43.080;25.550;2023-10-13T15:49:01;12.37;;;3.70;;
37065;SDS011;22981;43.080;25.550;2023-10-13T15:51:30;15.38;;;3.77;;
37065;SDS011;22981;43.080;25.550;2023-10-13T15:54:02;10.58;;;4.35;;
37065;SDS011;22981;43.080;25.550;2023-10-13T15:56:32;15.08;;;3.50;;
37065;SDS011;22981;43.080;25.550;2023-10-13T15:59:01;9.25;;;3.80;;
37065;SDS011;22981;43.080;25.550;2023-10-13T16:01:30;12.80;;;3.65;;
37065;SDS011;22981;43.080;25.550;2023-10-13T16:03:59;10.72;;;3.50;;
37065;SDS011;22981;43.080;25.550;2023-10-13T16:06:28;15.50;;;4.25;;
37065;SDS011;22981;43.080;25.550;2023-10-13T16:08:55;17.25;;;4.80;;
37065;SDS011;22981;43.080;25.550;2023-10-13T16:11:23;16.95;;;5.80;;
37065;SDS011;22981;43.080;25.550;2023-10-13T16:13:52;15.80;;;5.97;;
37065;SDS011;22981;43.080;25.550;2023-10-13T16:16:20;12.73;;;5.78;;
37065;SDS011;22981;43.080;25.550;2023-10-13T16:18:49;13.20;;;5.25;;
37065;SDS011;22981;43.080;25.550;2023-10-13T16:21:18;12.88;;;4.70;;
37065;SDS011;22981;43.080;25.550;2023-10-13T16:23:46;11.25;;;4.00;;
37065;SDS011;22981;43.080;25.550;2023-10-13T16:26:16;9.75;;;4.15;;
37065;SDS011;22981;43.080;25.550;2023-10-13T16:28:51;9.60;;;4.35;;
37065;SDS011;22981;43.080;25.550;2023-10-13T16:31:19;14.03;;;4.58;;
37065;SDS011;22981;43.080;25.550;2023-10-13T16:33:51;13.50;;;4.28;;
37065;SDS011;22981;43.080;25.550;2023-10-13T16:36:21;10.50;;;3.87;;
37065;SDS011;22981;43.080;25.550;2023-10-13T16:38:48;7.45;;;3.72;;
37065;SDS011;22981;43.080;25.550;2023-10-13T16:41:16;10.90;;;4.30;;
37065;SDS011;22981;43.080;25.550;2023-10-13T16:43:44;10.63;;;3.92;;
37065;SDS011;22981;43.080;25.550;2023-10-13T16:46:12;10.35;;;4.47;;
37065;SDS011;22981;43.080;25.550;2023-10-13T16:48:41;11.53;;;4.55;;
37065;SDS011;22981;43.080;25.550;2023-10-13T16:51:11;7.78;;;4.10;;
37065;SDS011;22981;43.080;25.550;2023-10-13T16:53:42;12.88;;;4.35;;
37065;SDS011;22981;43.080;25.550;2023-10-13T16:56:12;13.98;;;4.50;;
37065;SDS011;22981;43.080;25.550;2023-10-13T16:58:40;9.35;;;4.45;;
37065;SDS011;22981;43.080;25.550;2023-10-13T17:01:10;10.23;;;4.05;;
37065;SDS011;22981;43.080;25.550;2023-10-13T17:03:43;9.95;;;4.60;;
37065;SDS011;22981;43.080;25.550;2023-10-13T17:06:10;13.38;;;5.10;;
37065;SDS011;22981;43.080;25.550;2023-10-13T17:08:38;13.30;;;5.30;;
37065;SDS011;22981;43.080;25.550;2023-10-13T17:11:09;9.65;;;4.97;;
37065;SDS011;22981;43.080;25.550;2023-10-13T17:13:37;12.28;;;4.62;;
37065;SDS011;22981;43.080;25.550;2023-10-13T17:16:11;13.25;;;4.50;;
37065;SDS011;22981;43.080;25.550;2023-10-13T17:18:41;7.30;;;4.10;;
37065;SDS011;22981;43.080;25.550;2023-10-13T17:21:16;13.18;;;4.60;;
37065;SDS011;22981;43.080;25.550;2023-10-13T17:23:50;8.85;;;4.25;;
37065;SDS011;22981;43.080;25.550;2023-10-13T17:26:16;10.53;;;4.25;;
37065;SDS011;22981;43.080;25.550;2023-10-13T17:28:50;9.83;;;4.00;;
37065;SDS011;22981;43.080;25.550;2023-10-13T17:31:19;7.33;;;4.03;;
37065;SDS011;22981;43.080;25.550;2023-10-13T17:33:46;11.55;;;6.10;;
37065;SDS011;22981;43.080;25.550;2023-10-13T17:36:14;9.98;;;5.35;;
37065;SDS011;22981;43.080;25.550;2023-10-13T17:38:42;12.07;;;5.35;;
37065;SDS011;22981;43.080;25.550;2023-10-13T17:41:13;12.78;;;5.55;;
37065;SDS011;22981;43.080;25.550;2023-10-13T17:43:41;11.15;;;5.72;;
37065;SDS011;22981;43.080;25.550;2023-10-13T17:46:11;11.63;;;5.50;;
37065;SDS011;22981;43.080;25.550;2023-10-13T17:48:40;10.90;;;4.97;;
37065;SDS011;22981;43.080;25.550;2023-10-13T17:51:11;9.78;;;4.92;;
37065;SDS011;22981;43.080;25.550;2023-10-13T17:53:41;7.67;;;5.53;;
37065;SDS011;22981;43.080;25.550;2023-10-13T17:56:11;14.55;;;5.37;;
37065;SDS011;22981;43.080;25.550;2023-10-13T17:58:41;9.45;;;5.50;;
37065;SDS011;22981;43.080;25.550;2023-10-13T18:01:15;12.23;;;6.28;;
37065;SDS011;22981;43.080;25.550;2023-10-13T18:03:41;13.05;;;6.00;;
37065;SDS011;22981;43.080;25.550;2023-10-13T18:06:22;15.85;;;5.75;;
37065;SDS011;22981;43.080;25.550;2023-10-13T18:08:52;14.87;;;5.40;;
37065;SDS011;22981;43.080;25.550;2023-10-13T18:11:22;13.25;;;6.25;;
37065;SDS011;22981;43.080;25.550;2023-10-13T18:13:51;11.93;;;5.60;;
37065;SDS011;22981;43.080;25.550;2023-10-13T18:16:20;9.43;;;5.28;;
37065;SDS011;22981;43.080;25.550;2023-10-13T18:18:51;9.45;;;5.50;;
37065;SDS011;22981;43.080;25.550;2023-10-13T18:21:23;12.28;;;5.75;;
37065;SDS011;22981;43.080;25.550;2023-10-13T18:23:54;15.60;;;5.67;;
37065;SDS011;22981;43.080;25.550;2023-10-13T18:26:21;11.85;;;5.97;;
37065;SDS011;22981;43.080;25.550;2023-10-13T18:28:49;11.33;;;5.58;;
37065;SDS011;22981;43.080;25.550;2023-10-13T18:31:17;7.60;;;5.58;;
37065;SDS011;22981;43.080;25.550;2023-10-13T18:33:45;12.15;;;6.28;;
37065;SDS011;22981;43.080;25.550;2023-10-13T18:36:16;12.85;;;5.62;;
37065;SDS011;22981;43.080;25.550;2023-10-13T18:38:45;9.05;;;5.30;;
37065;SDS011;22981;43.080;25.550;2023-10-13T18:41:14;12.53;;;5.42;;
37065;SDS011;22981;43.080;25.550;2023-10-13T18:43:43;11.63;;;4.83;;
37065;SDS011;22981;43.080;25.550;2023-10-13T18:46:13;13.40;;;5.22;;
37065;SDS011;22981;43.080;25.550;2023-10-13T18:48:43;11.90;;;5.22;;
37065;SDS011;22981;43.080;25.550;2023-10-13T18:51:12;8.60;;;4.45;;
37065;SDS011;22981;43.080;25.550;2023-10-13T18:53:40;14.18;;;5.58;;
37065;SDS011;22981;43.080;25.550;2023-10-13T18:56:15;7.22;;;4.75;;
37065;SDS011;22981;43.080;25.550;2023-10-13T18:58:43;8.60;;;5.15;;
37065;SDS011;22981;43.080;25.550;2023-10-13T19:01:14;10.23;;;4.53;;
37065;SDS011;22981;43.080;25.550;2023-10-13T19:03:46;14.87;;;5.85;;
37065;SDS011;22981;43.080;25.550;2023-10-13T19:06:14;9.63;;;5.87;;
37065;SDS011;22981;43.080;25.550;2023-10-13T19:08:41;8.30;;;5.10;;
37065;SDS011;22981;43.080;25.550;2023-10-13T19:11:10;17.35;;;6.30;;
37065;SDS011;22981;43.080;25.550;2023-10-13T19:13:43;13.48;;;6.72;;
37065;SDS011;22981;43.080;25.550;2023-10-13T19:16:09;13.50;;;6.10;;
37065;SDS011;22981;43.080;25.550;2023-10-13T19:18:41;12.85;;;5.92;;
37065;SDS011;22981;43.080;25.550;2023-10-13T19:21:13;8.53;;;5.45;;
37065;SDS011;22981;43.080;25.550;2023-10-13T19:23:48;9.13;;;5.10;;
37065;SDS011;22981;43.080;25.550;2023-10-13T19:26:23;8.78;;;5.33;;
37065;SDS011;22981;43.080;25.550;2023-10-13T19:28:55;14.63;;;6.03;;
37065;SDS011;22981;43.080;25.550;2023-10-13T19:31:21;11.70;;;6.72;;
37065;SDS011;22981;43.080;25.550;2023-10-13T19:33:53;10.30;;;6.85;;
37065;SDS011;22981;43.080;25.550;2023-10-13T19:36:22;13.30;;;6.67;;
37065;SDS011;22981;43.080;25.550;2023-10-13T19:38:52;14.25;;;6.30;;
37065;SDS011;22981;43.080;25.550;2023-10-13T19:41:20;11.68;;;5.47;;
37065;SDS011;22981;43.080;25.550;2023-10-13T19:43:55;8.48;;;5.10;;
37065;SDS011;22981;43.080;25.550;2023-10-13T19:46:25;9.80;;;5.60;;
37065;SDS011;22981;43.080;25.550;2023-10-13T19:48:53;12.47;;;5.40;;
37065;SDS011;22981;43.080;25.550;2023-10-13T19:51:22;12.03;;;5.15;;
37065;SDS011;22981;43.080;25.550;2023-10-13T19:53:55;8.15;;;5.35;;
37065;SDS011;22981;43.080;25.550;2023-10-13T19:56:29;11.88;;;8.08;;
37065;SDS011;22981;43.080;25.550;2023-10-13T19:58:59;18.70;;;10.40;;
37065;SDS011;22981;43.080;25.550;2023-10-13T20:01:27;19.65;;;9.68;;
37065;SDS011;22981;43.080;25.550;2023-10-13T20:03:56;10.82;;;8.08;;
37065;SDS011;22981;43.080;25.550;2023-10-13T20:06:24;18.42;;;9.03;;
37065;SDS011;22981;43.080;25.550;2023-10-13T20:08:54;17.10;;;9.25;;
37065;SDS011;22981;43.080;25.550;2023-10-13T20:11:27;13.53;;;8.35;;
37065;SDS011;22981;43.080;25.550;2023-10-13T20:13:55;14.55;;;8.63;;
37065;SDS011;22981;43.080;25.550;2023-10-13T20:16:22;12.00;;;7.47;;
37065;SDS011;22981;43.080;25.550;2023-10-13T20:18:51;11.48;;;7.35;;
37065;SDS011;22981;43.080;25.550;2023-10-13T20:21:21;20.17;;;8.20;;
37065;SDS011;22981;43.080;25.550;2023-10-13T20:23:51;16.55;;;7.95;;
37065;SDS011;22981;43.080;25.550;2023-10-13T20:26:20;12.25;;;7.22;;
37065;SDS011;22981;43.080;25.550;2023-10-13T20:28:48;11.57;;;7.00;;
37065;SDS011;22981;43.080;25.550;2023-10-13T20:31:15;12.43;;;6.90;;
37065;SDS011;22981;43.080;25.550;2023-10-13T20:33:43;10.53;;;6.78;;
37065;SDS011;22981;43.080;25.550;2023-10-13T20:36:10;9.80;;;6.30;;
37065;SDS011;22981;43.080;25.550;2023-10-13T20:38:39;7.35;;;6.08;;
37065;SDS011;22981;43.080;25.550;2023-10-13T20:41:06;16.87;;;7.35;;
37065;SDS011;22981;43.080;25.550;2023-10-13T20:43:34;11.28;;;7.90;;
37065;SDS011;22981;43.080;25.550;2023-10-13T20:46:05;12.45;;;7.95;;
37065;SDS011;22981;43.080;25.550;2023-10-13T20:48:32;15.28;;;7.42;;
37065;SDS011;22981;43.080;25.550;2023-10-13T20:51:01;13.50;;;7.87;;
37065;SDS011;22981;43.080;25.550;2023-10-13T20:53:34;11.33;;;7.37;;
37065;SDS011;22981;43.080;25.550;2023-10-13T20:56:05;12.03;;;7.30;;
37065;SDS011;22981;43.080;25.550;2023-10-13T20:58:34;16.10;;;7.83;;
37065;SDS011;22981;43.080;25.550;2023-10-13T21:01:09;10.43;;;7.03;;
37065;SDS011;22981;43.080;25.550;2023-10-13T21:03:36;12.15;;;6.80;;
37065;SDS011;22981;43.080;25.550;2023-10-13T21:06:05;15.23;;;6.70;;
37065;SDS011;22981;43.080;25.550;2023-10-13T21:08:39;13.03;;;7.33;;
37065;SDS011;22981;43.080;25.550;2023-10-13T21:11:12;8.98;;;6.17;;
37065;SDS011;22981;43.080;25.550;2023-10-13T21:13:41;13.53;;;6.92;;
37065;SDS011;22981;43.080;25.550;2023-10-13T21:16:13;10.48;;;6.90;;
37065;SDS011;22981;43.080;25.550;2023-10-13T21:18:38;12.33;;;7.28;;
37065;SDS011;22981;43.080;25.550;2023-10-13T21:21:11;12.15;;;7.17;;
37065;SDS011;22981;43.080;25.550;2023-10-13T21:23:46;12.93;;;7.12;;
37065;SDS011;22981;43.080;25.550;2023-10-13T21:26:18;11.05;;;7.15;;
37065;SDS011;22981;43.080;25.550;2023-10-13T21:28:47;15.65;;;7.65;;
37065;SDS011;22981;43.080;25.550;2023-10-13T21:31:15;12.58;;;6.97;;
37065;SDS011;22981;43.080;25.550;2023-10-13T21:33:44;12.47;;;6.80;;
37065;SDS011;22981;43.080;25.550;2023-10-13T21:36:17;13.05;;;6.30;;
37065;SDS011;22981;43.080;25.550;2023-10-13T21:38:45;13.05;;;6.80;;
37065;SDS011;22981;43.080;25.550;2023-10-13T21:41:15;13.80;;;7.35;;
37065;SDS011;22981;43.080;25.550;2023-10-13T21:43:50;9.85;;;6.60;;
37065;SDS011;22981;43.080;25.550;2023-10-13T21:46:19;13.98;;;7.50;;
37065;SDS011;22981;43.080;25.550;2023-10-13T21:48:48;11.12;;;7.22;;
37065;SDS011;22981;43.080;25.550;2023-10-13T21:51:18;10.35;;;6.95;;
37065;SDS011;22981;43.080;25.550;2023-10-13T21:53:48;13.43;;;7.20;;
37065;SDS011;22981;43.080;25.550;2023-10-13T21:56:17;11.70;;;7.00;;
37065;SDS011;22981;43.080;25.550;2023-10-13T21:58:56;16.30;;;7.15;;
37065;SDS011;22981;43.080;25.550;2023-10-13T22:01:24;14.40;;;7.50;;
37065;SDS011;22981;43.080;25.550;2023-10-13T22:04:00;13.78;;;8.03;;
37065;SDS011;22981;43.080;25.550;2023-10-13T22:06:26;10.13;;;7.65;;
37065;SDS011;22981;43.080;25.550;2023-10-13T22:08:54;12.33;;;7.92;;
37065;SDS011;22981;43.080;25.550;2023-10-13T22:11:21;11.05;;;6.75;;
37065;SDS011;22981;43.080;25.550;2023-10-13T22:13:50;13.35;;;7.45;;
37065;SDS011;22981;43.080;25.550;2023-10-13T22:16:17;11.68;;;7.08;;
37065;SDS011;22981;43.080;25.550;2023-10-13T22:18:45;11.78;;;7.75;;
37065;SDS011;22981;43.080;25.550;2023-10-13T22:21:14;11.03;;;7.10;;
37065;SDS011;22981;43.080;25.550;2023-10-13T22:23:44;11.50;;;7.90;;
37065;SDS011;22981;43.080;25.550;2023-10-13T22:26:12;15.13;;;7.65;;
37065;SDS011;22981;43.080;25.550;2023-10-13T22:28:44;19.67;;;8.13;;